Details From NCRG - Rarotonga Intl
To NFTF - Fua Amotu Intl
Flight Number -
Tags decoded
Created
Modified
Stats Distance 859 nm / 1,591 km
Max Altitude 0 ft / 0 m
Waypoints 6
Social Downloads 2
Likes 0
Share VATSIM

Download

Looking for another format? Having issues loading an existing format? Contact us
Advertisement - Login to hide

Notes

Requested: NCRG RG B598 TBU NFTF

Route

NCRG RG B598 TBU NFTF

ID Type Via Altitude Latitude Longitude Leg Dist Tot Dist Heading (true) Name
O NCRG APT - 0 ft / 0 m -21.20274˚ -159.80556˚ - 0 nm - Rarotonga Intl
RG NDB - 0 ft / 0 m -21.20833˚ -159.82167˚ 0 nm 0 nm 250° / 250° RAROTONGA NDB
NOPAN FIX B598 (AWY-LO) 0 ft / 0 m -21.36917˚ -165.00000˚ 289 nm 290 nm 267° / 269° -
VISIK FIX B598 (AWY-HI) 0 ft / 0 m -21.35500˚ -171.77194˚ 378 nm 669 nm 269° / 271° -
TBU VOR B598 (AWY-LO) 0 ft / 0 m -21.24417˚ -175.14861˚ 189 nm 858 nm 271° / 273° FUA AMOTU VOR-DME
O NFTF APT - 0 ft / 0 m -21.24249˚ -175.14457˚ 0 nm 858 nm 66° / 66° Fua Amotu Intl

Altitude Profile

Advertisement - Login to hide

Weather


0- 5 10 15 20 25 30 35+ Temperature / ° C

Clouds and Precipitation
Forecast for 2017-12-14 06:00 UTC. Updated an hour ago

Ground ~20,000 ft ~40,000 ft Winds

NCRG

Details ICAO NCRG (RAR)
Name Rarotonga Intl
Region Cook Islands
Timezone Pacific/Rarotonga (UTC-10.0)
Stats Elevation 19 ft / 6 m (AMSL)
Location -21.202739° -159.805555°
Runways 1
Magnetic Variation 13.934° E

METAR

NCRG 140400Z 16004KT 9999 FEW018 BKN090 28/22 Q1005

Decode

TAF

TAF NCRG 132218Z 1400/1424 25005KT 9999 -SHRA FEW009 SCT014 BKN100 PROB30 TEMPO 1400/1406 6000 SHRA BKN014 PROB40 TEMPO 1406/1415 6000 SHRA BKN014

Decode

Departure Runways

ID Width Length Bearing (true) Bearing (mag) Surface Threshold Offset Overrun Length
08 150 ft / 46 m 7,629 ft / 2,325 m 89.99° 76.06° Concrete 400 ft / 122 m 100 ft / 30 m
26 150 ft / 46 m 7,629 ft / 2,325 m 269.98° 256.05° Concrete 0 ft / 0 m 0 ft / 0 m

NFTF

Details ICAO NFTF (TBU)
Name Fua Amotu Intl
Region Fiji and Tonga
Timezone Pacific/Tongatapu (UTC+14.0)
Stats Elevation 126 ft / 38 m (AMSL)
Location -21.242493° -175.144569°
Runways 2
Magnetic Variation 13.665° E

METAR

NFTF 140400Z 00000KT 9999 FEW018 BKN280 26/18 Q1009

Decode

TAF

TAF NFTF 132218Z 1400/1424 15007KT 9999 FEW007 SCT018 BKN045

Decode

Destination Runways

ID Width Length Bearing (true) Bearing (mag) Surface Threshold Offset Overrun Length
11 148 ft / 45 m 8,967 ft / 2,733 m 122.10° 108.43° Asphalt 0 ft / 0 m 194 ft / 59 m
17 194 ft / 59 m 4,960 ft / 1,512 m 182.40° 168.73° Unknown 0 ft / 0 m 0 ft / 0 m
29 148 ft / 45 m 8,967 ft / 2,733 m 302.09° 288.42° Asphalt 0 ft / 0 m 194 ft / 59 m
35 194 ft / 59 m 4,960 ft / 1,512 m 2.40° 348.73° Unknown 0 ft / 0 m 0 ft / 0 m

Popular Alternatives